Warsaw, IN

1:25 PM EDT on May 30, 2015 (GMT -0400)
15 South | | Change Station
CLOSE
Current Station
Personal Weather Station
Location: Warsaw, IN
Elevation: 840 ft
Nearby Weather Stations

Elev 840 ft 41.22 °N, 85.87 °W | Updated 11 minutes ago

Scattered Clouds
Scattered Clouds
77.2 °F
Feels Like 79 °F
N
4.0
Wind Variable Wind from SW
Gusts 7.0 mph

Today
High -- | Low -- °F
--% Chance of Precip.
Yesterday
High -- | Low -- °F
Precip. -- in
6:13 AM 9:08 PM
Waxing Gibbous, 91% visible
Pressure 29.99 in
Visibility 10.0 miles
Clouds Scattered Clouds 2300 ft
Heat Index 79 °F
Dew Point 69 °F
Humidity 76%
Rainfall 0.00 in
Snow Depth Not available.
UV 9 out of 12
Pollen 1.20 out of 12
Air Quality Not available.
Flu Activity No Activity
METAR KASW 301715Z AUTO 26006KT 10SM SCT023 25/19 A2999 RMK AO2

More Conditions Fewer Conditions

Pressure 29.99 in
Visibility 10.0 miles
Clouds Scattered Clouds 2300 ft
Heat Index 79 °F
Dew Point 69 °F
Humidity 76%
Rainfall 0.00 in
Snow Depth Not available.
UV 9 out of 12
Pollen 1.20 out of 12
Air Quality Not available.
Flu Activity No Activity
METAR KASW 301715Z AUTO 26006KT 10SM SCT023 25/19 A2999 RMK AO2

More Conditions Fewer Conditions

10-Day Weather Forecast

Almanac

Astronomy

May. 30, 2015 Rise Set
Actual Time
Civil Twilight
Nautical Twilight
Astronomical Twilight
Moon
Length of Visible Light
Length of Day
Tomorrow will be .
, % of the Moon is Illuminated

Today's Extremes

State Highs State Lows

Community

WunderPhotos

Upload Photos

1,825,578 photos uploaded!

WunderBlogs® & News

Nearby

Air Quality

  Air Quality AQ Index Pollutant
Not available.

Snow Depth

Station Depth Elevation

Earthquake Activity

City Distance Mag. Time & Date
Minimum magnitude displayed is 2.5.

Coastal Water Temperatures

Place Temperature

Stations

Nearby Weather Stations

Station Location Temp. Windchill Dew Point Humidity Wind Precip. Elev Updated Type